M/tug Gulf 2 — TCA2452 — position and weather

sailwx.info

Track history (hours):
 
Tides and Currents Weather Stations Pressure Air Temp Water Temp Dewpoint Dewpoint Depression Visibility Wind Speed Wind Dir Waves Ship Positions

M/tug Gulf 2

Last reported at 2015-Mar-29 16:33 UTC. Time now 2015-Mar-29 17:24 UTC.
Position N 40°52' E 029°01'.

Length 23 m; draft 3.7 m.

Type: Tug. MMSI: 271002438.

Date/timePositionNaut miles runAvg speedWind from/ knotsBaromVisibWave heightAir tempDewpointWater temp
2015-Mar-29 16:33N 40°52' E 029°01'3 3.0
2015-Mar-29 15:31N 40°54' E 028°58'3 2.8
2015-Mar-29 14:32N 40°57' E 028°57'6 5.5
2015-Mar-29 13:32N 41°02' E 029°00'  
2015-Mar-25 21:33N 42°03' E 028°58'8 7.8
2015-Mar-25 20:33N 41°55' E 028°60'8 7.8
2015-Mar-25 19:33N 41°48' E 029°02'17 7.7
2015-Mar-25 17:24N 41°31' E 029°05'15 7.8
2015-Mar-25 15:32N 41°17' E 029°07'17 7.1
2015-Mar-25 13:12N 41°01' E 028°60'5 8.0
2015-Mar-25 12:33N 40°56' E 029°03'9 8.8
2015-Mar-25 11:33N 40°52' E 029°13'4 3.8
2015-Mar-25 10:33N 40°51' E 029°17'0 0.0
2015-Mar-25 09:33N 40°51' E 029°17'0 0.0
2015-Mar-25 08:33N 40°51' E 029°17'0 0.0
2015-Mar-25 07:33N 40°51' E 029°17'0 0.0
2015-Mar-25 06:33N 40°51' E 029°17'0 0.0
2015-Mar-25 05:21N 40°51' E 029°17'0 0.0
2015-Mar-25 04:27N 40°51' E 029°17'0 0.0
2015-Mar-25 03:33N 40°51' E 029°17'0 0.0
2015-Mar-25 02:27N 40°51' E 029°17'0 0.0
2015-Mar-25 01:27N 40°51' E 029°17'0 0.0
2015-Mar-25 00:33N 40°51' E 029°17'0 0.0
2015-Mar-24 23:33N 40°51' E 029°17'0 0.0
2015-Mar-24 22:33N 40°51' E 029°17'0 0.0
2015-Mar-24 21:33N 40°51' E 029°17'0 0.0
2015-Mar-24 20:27N 40°51' E 029°17'0 0.0
2015-Mar-24 19:27N 40°51' E 029°17'0 0.0
2015-Mar-24 18:15N 40°51' E 029°17'0 0.0
2015-Mar-24 17:27N 40°51' E 029°17'0 0.0
2015-Mar-24 16:33N 40°51' E 029°17'0 0.0
2015-Mar-24 15:33N 40°51' E 029°17'0 0.0
2015-Mar-24 14:33N 40°51' E 029°17'0 0.0
2015-Mar-24 13:27N 40°51' E 029°17'0 0.0
2015-Mar-24 12:33N 40°51' E 029°17'0 0.0
2015-Mar-24 09:27N 40°51' E 029°17'0 0.0
2015-Mar-24 08:27N 40°51' E 029°17'0 0.0
2015-Mar-24 07:33N 40°51' E 029°17'0 0.0
2015-Mar-24 06:23N 40°51' E 029°17'0 0.0
2015-Mar-24 05:29N 40°51' E 029°17'0 0.0
2015-Mar-24 04:29N 40°51' E 029°17'0 0.0
2015-Mar-24 03:23N 40°51' E 029°17'0 0.0
2015-Mar-24 02:29N 40°51' E 029°17'0 0.0
2015-Mar-24 01:29N 40°51' E 029°17'0 0.0
2015-Mar-24 00:29N 40°51' E 029°17'0 0.0
2015-Mar-23 23:17N 40°51' E 029°17'0 0.0
2015-Mar-23 22:29N 40°51' E 029°17'0 0.0
2015-Mar-23 21:29N 40°51' E 029°17'0 0.0
2015-Mar-23 20:30N 40°51' E 029°17'0 0.0
2015-Mar-23 19:33N 40°51' E 029°17'0 0.0
2015-Mar-23 18:33N 40°51' E 029°17'0 0.0
2015-Mar-23 17:33N 40°51' E 029°17'0 0.0
2015-Mar-23 16:33N 40°51' E 029°17'1 0.6
2015-Mar-23 15:33N 40°51' E 029°17'1 0.6
2015-Mar-23 14:33N 40°51' E 029°17'0 0.0
2015-Mar-23 13:33N 40°51' E 029°17'0 0.5
2015-Mar-23 12:33N 40°51' E 029°17'0 0.5
2015-Mar-23 11:33N 40°51' E 029°17'0 0.0
2015-Mar-23 10:33N 40°51' E 029°17'0 0.0
2015-Mar-23 09:21N 40°51' E 029°17'0 0.0
2015-Mar-23 08:33N 40°51' E 029°17'0 0.0
2015-Mar-23 07:24N 40°51' E 029°17'0 0.0
2015-Mar-23 06:30N 40°51' E 029°17'0 0.0
2015-Mar-23 05:18N 40°51' E 029°17'0 0.0
2015-Mar-23 04:13N 40°51' E 029°17'0 0.0
2015-Mar-23 03:18N 40°51' E 029°17'0 0.0
2015-Mar-23 02:30N 40°51' E 029°17'0 0.0
2015-Mar-23 01:30N 40°51' E 029°17'0 0.0
2015-Mar-23 00:30N 40°51' E 029°17'0 0.0
2015-Mar-22 23:30N 40°51' E 029°17'0 0.0
2015-Mar-22 22:30N 40°51' E 029°17'0 0.0
2015-Mar-22 21:24N 40°51' E 029°17'0 0.0
2015-Mar-22 20:30N 40°51' E 029°17'0 0.0
2015-Mar-22 19:30N 40°51' E 029°17'0 0.0
2015-Mar-22 18:24N 40°51' E 029°17'0 0.0
2015-Mar-22 17:24N 40°51' E 029°17'0 0.0
2015-Mar-22 16:30N 40°51' E 029°17'0 0.0
2015-Mar-22 15:18N 40°51' E 029°17'0 0.0
2015-Mar-22 14:21N 40°51' E 029°17'0 0.0
2015-Mar-22 13:33N 40°51' E 029°17'0 0.0
2015-Mar-22 12:18N 40°51' E 029°17'0 0.0
2015-Mar-22 11:30N 40°51' E 029°17'0 0.0
2015-Mar-22 10:30N 40°51' E 029°17'0 0.0
2015-Mar-22 09:24N 40°51' E 029°17'0 0.0
2015-Mar-22 08:24N 40°51' E 029°17'0 0.0
2015-Mar-22 07:18N 40°51' E 029°17'0 0.0
2015-Mar-22 06:30N 40°51' E 029°17'0 0.0
2015-Mar-22 05:24N 40°51' E 029°17'0 0.0
2015-Mar-22 04:18N 40°51' E 029°17'0 0.0
2015-Mar-22 03:30N 40°51' E 029°17'0 0.0
2015-Mar-22 02:30N 40°51' E 029°17'0 0.0
2015-Mar-22 01:30N 40°51' E 029°17'0 0.0
2015-Mar-22 00:24N 40°51' E 029°17'0 0.0
2015-Mar-21 23:24N 40°51' E 029°17'0 0.0
2015-Mar-21 22:30N 40°51' E 029°17'0 0.0
2015-Mar-21 21:06N 40°51' E 029°17'0 0.0
2015-Mar-21 20:30N 40°51' E 029°17'0 0.0
2015-Mar-21 19:30N 40°51' E 029°17'0 0.0
2015-Mar-21 18:30N 40°51' E 029°17'0 0.0
2015-Mar-21 17:24N 40°51' E 029°17'0 0.0
2015-Mar-21 16:28N 40°51' E 029°17'0 0.0
2015-Mar-21 15:28N 40°51' E 029°17'0 0.0
2015-Mar-21 14:28N 40°51' E 029°17'0 0.0
2015-Mar-21 13:28N 40°51' E 029°17'0 0.0
2015-Mar-21 12:28N 40°51' E 029°17'0 0.0
2015-Mar-21 11:28N 40°51' E 029°17'0 0.0
2015-Mar-21 10:28N 40°51' E 029°17'0 0.0
2015-Mar-21 09:22N 40°51' E 029°17'0 0.0
2015-Mar-21 07:22N 40°51' E 029°17'0 0.0
2015-Mar-21 06:22N 40°51' E 029°17'0 0.0
2015-Mar-21 05:22N 40°51' E 029°17'0 0.0
2015-Mar-21 04:22N 40°51' E 029°17'0 0.0
2015-Mar-21 03:28N 40°51' E 029°17'0 0.0
2015-Mar-21 02:28N 40°51' E 029°17'0 0.0
2015-Mar-21 01:28N 40°51' E 029°17'0 0.0
2015-Mar-21 00:28N 40°51' E 029°17'0 0.0
2015-Mar-20 23:28N 40°51' E 029°17'0 0.0
2015-Mar-20 22:28N 40°51' E 029°17'0 0.0
2015-Mar-20 21:28N 40°51' E 029°17'0 0.0
2015-Mar-20 20:28N 40°51' E 029°17'0 0.0
2015-Mar-20 19:22N 40°51' E 029°17'0 0.0
2015-Mar-20 17:22N 40°51' E 029°17'0 0.0
2015-Mar-20 16:28N 40°51' E 029°17'0 0.0
2015-Mar-20 15:28N 40°51' E 029°17'0 0.0
2015-Mar-20 14:28N 40°51' E 029°17'0 0.0
2015-Mar-20 13:28N 40°51' E 029°17'0 0.0
2015-Mar-20 12:28N 40°51' E 029°17'0 0.0
2015-Mar-20 11:25N 40°51' E 029°17'0 0.0
2015-Mar-20 10:25N 40°51' E 029°17'0 0.0
2015-Mar-20 09:31N 40°51' E 029°17'0 0.0
2015-Mar-20 08:31N 40°51' E 029°17'0 0.0
2015-Mar-20 07:31N 40°51' E 029°17'0 0.0
2015-Mar-20 06:31N 40°51' E 029°17'0 0.0
2015-Mar-20 05:13N 40°51' E 029°17'0 0.0
2015-Mar-20 04:22N 40°51' E 029°17'0 0.0
2015-Mar-20 03:28N 40°51' E 029°17'0 0.0
2015-Mar-20 02:22N 40°51' E 029°17'0 0.0
2015-Mar-20 01:22N 40°51' E 029°17'0 0.0
2015-Mar-20 00:10N 40°51' E 029°17'0 0.0
2015-Mar-19 23:28N 40°51' E 029°17'0 0.0
2015-Mar-19 22:28N 40°51' E 029°17'0 0.0
2015-Mar-19 21:10N 40°51' E 029°17'  
Track history (hours):
 
Tides and Currents Weather Stations Pressure Air Temp Water Temp Dewpoint Dewpoint Depression Visibility Wind Speed Wind Dir Waves Ship Positions

M/tug Gulf 2

Last reported at 2015-Mar-29 16:33 UTC. Time now 2015-Mar-29 17:24 UTC.
Position N 40°52' E 029°01'.

Length 23 m; draft 3.7 m.

Type: Tug. MMSI: 271002438.

Date/timePositionNaut miles runAvg speedWind from/ knotsBaromVisibWave heightAir tempDewpointWater temp
2015-Mar-29 16:33N 40°52' E 029°01'3 3.0
2015-Mar-29 15:31N 40°54' E 028°58'3 2.8
2015-Mar-29 14:32N 40°57' E 028°57'6 5.5
2015-Mar-29 13:32N 41°02' E 029°00'  
2015-Mar-25 21:33N 42°03' E 028°58'8 7.8
2015-Mar-25 20:33N 41°55' E 028°60'8 7.8
2015-Mar-25 19:33N 41°48' E 029°02'17 7.7
2015-Mar-25 17:24N 41°31' E 029°05'15 7.8
2015-Mar-25 15:32N 41°17' E 029°07'17 7.1
2015-Mar-25 13:12N 41°01' E 028°60'5 8.0
2015-Mar-25 12:33N 40°56' E 029°03'9 8.8
2015-Mar-25 11:33N 40°52' E 029°13'4 3.8
2015-Mar-25 10:33N 40°51' E 029°17'0 0.0
2015-Mar-25 09:33N 40°51' E 029°17'0 0.0
2015-Mar-25 08:33N 40°51' E 029°17'0 0.0
2015-Mar-25 07:33N 40°51' E 029°17'0 0.0
2015-Mar-25 06:33N 40°51' E 029°17'0 0.0
2015-Mar-25 05:21N 40°51' E 029°17'0 0.0
2015-Mar-25 04:27N 40°51' E 029°17'0 0.0
2015-Mar-25 03:33N 40°51' E 029°17'0 0.0
2015-Mar-25 02:27N 40°51' E 029°17'0 0.0
2015-Mar-25 01:27N 40°51' E 029°17'0 0.0
2015-Mar-25 00:33N 40°51' E 029°17'0 0.0
2015-Mar-24 23:33N 40°51' E 029°17'0 0.0
2015-Mar-24 22:33N 40°51' E 029°17'0 0.0
2015-Mar-24 21:33N 40°51' E 029°17'0 0.0
2015-Mar-24 20:27N 40°51' E 029°17'0 0.0
2015-Mar-24 19:27N 40°51' E 029°17'0 0.0
2015-Mar-24 18:15N 40°51' E 029°17'0 0.0
2015-Mar-24 17:27N 40°51' E 029°17'0 0.0
2015-Mar-24 16:33N 40°51' E 029°17'0 0.0
2015-Mar-24 15:33N 40°51' E 029°17'0 0.0
2015-Mar-24 14:33N 40°51' E 029°17'0 0.0
2015-Mar-24 13:27N 40°51' E 029°17'0 0.0
2015-Mar-24 12:33N 40°51' E 029°17'0 0.0
2015-Mar-24 09:27N 40°51' E 029°17'0 0.0
2015-Mar-24 08:27N 40°51' E 029°17'0 0.0
2015-Mar-24 07:33N 40°51' E 029°17'0 0.0
2015-Mar-24 06:23N 40°51' E 029°17'0 0.0
2015-Mar-24 05:29N 40°51' E 029°17'0 0.0
2015-Mar-24 04:29N 40°51' E 029°17'0 0.0
2015-Mar-24 03:23N 40°51' E 029°17'0 0.0
2015-Mar-24 02:29N 40°51' E 029°17'0 0.0
2015-Mar-24 01:29N 40°51' E 029°17'0 0.0
2015-Mar-24 00:29N 40°51' E 029°17'0 0.0
2015-Mar-23 23:17N 40°51' E 029°17'0 0.0
2015-Mar-23 22:29N 40°51' E 029°17'0 0.0
2015-Mar-23 21:29N 40°51' E 029°17'0 0.0
2015-Mar-23 20:30N 40°51' E 029°17'0 0.0
2015-Mar-23 19:33N 40°51' E 029°17'0 0.0
2015-Mar-23 18:33N 40°51' E 029°17'0 0.0
2015-Mar-23 17:33N 40°51' E 029°17'0 0.0
2015-Mar-23 16:33N 40°51' E 029°17'1 0.6
2015-Mar-23 15:33N 40°51' E 029°17'1 0.6
2015-Mar-23 14:33N 40°51' E 029°17'0 0.0
2015-Mar-23 13:33N 40°51' E 029°17'0 0.5
2015-Mar-23 12:33N 40°51' E 029°17'0 0.5
2015-Mar-23 11:33N 40°51' E 029°17'0 0.0
2015-Mar-23 10:33N 40°51' E 029°17'0 0.0
2015-Mar-23 09:21N 40°51' E 029°17'0 0.0
2015-Mar-23 08:33N 40°51' E 029°17'0 0.0
2015-Mar-23 07:24N 40°51' E 029°17'0 0.0
2015-Mar-23 06:30N 40°51' E 029°17'0 0.0
2015-Mar-23 05:18N 40°51' E 029°17'0 0.0
2015-Mar-23 04:13N 40°51' E 029°17'0 0.0
2015-Mar-23 03:18N 40°51' E 029°17'0 0.0
2015-Mar-23 02:30N 40°51' E 029°17'0 0.0
2015-Mar-23 01:30N 40°51' E 029°17'0 0.0
2015-Mar-23 00:30N 40°51' E 029°17'0 0.0
2015-Mar-22 23:30N 40°51' E 029°17'0 0.0
2015-Mar-22 22:30N 40°51' E 029°17'0 0.0
2015-Mar-22 21:24N 40°51' E 029°17'0 0.0
2015-Mar-22 20:30N 40°51' E 029°17'0 0.0
2015-Mar-22 19:30N 40°51' E 029°17'0 0.0
2015-Mar-22 18:24N 40°51' E 029°17'0 0.0
2015-Mar-22 17:24N 40°51' E 029°17'0 0.0
2015-Mar-22 16:30N 40°51' E 029°17'0 0.0
2015-Mar-22 15:18N 40°51' E 029°17'0 0.0
2015-Mar-22 14:21N 40°51' E 029°17'0 0.0
2015-Mar-22 13:33N 40°51' E 029°17'0 0.0
2015-Mar-22 12:18N 40°51' E 029°17'0 0.0
2015-Mar-22 11:30N 40°51' E 029°17'0 0.0
2015-Mar-22 10:30N 40°51' E 029°17'0 0.0
2015-Mar-22 09:24N 40°51' E 029°17'0 0.0
2015-Mar-22 08:24N 40°51' E 029°17'0 0.0
2015-Mar-22 07:18N 40°51' E 029°17'0 0.0
2015-Mar-22 06:30N 40°51' E 029°17'0 0.0
2015-Mar-22 05:24N 40°51' E 029°17'0 0.0
2015-Mar-22 04:18N 40°51' E 029°17'0 0.0
2015-Mar-22 03:30N 40°51' E 029°17'0 0.0
2015-Mar-22 02:30N 40°51' E 029°17'0 0.0
2015-Mar-22 01:30N 40°51' E 029°17'0 0.0
2015-Mar-22 00:24N 40°51' E 029°17'0 0.0
2015-Mar-21 23:24N 40°51' E 029°17'0 0.0
2015-Mar-21 22:30N 40°51' E 029°17'0 0.0
2015-Mar-21 21:06N 40°51' E 029°17'0 0.0
2015-Mar-21 20:30N 40°51' E 029°17'0 0.0
2015-Mar-21 19:30N 40°51' E 029°17'0 0.0
2015-Mar-21 18:30N 40°51' E 029°17'0 0.0
2015-Mar-21 17:24N 40°51' E 029°17'0 0.0
2015-Mar-21 16:28N 40°51' E 029°17'0 0.0
2015-Mar-21 15:28N 40°51' E 029°17'0 0.0
2015-Mar-21 14:28N 40°51' E 029°17'0 0.0
2015-Mar-21 13:28N 40°51' E 029°17'0 0.0
2015-Mar-21 12:28N 40°51' E 029°17'0 0.0
2015-Mar-21 11:28N 40°51' E 029°17'0 0.0
2015-Mar-21 10:28N 40°51' E 029°17'0 0.0
2015-Mar-21 09:22N 40°51' E 029°17'0 0.0
2015-Mar-21 07:22N 40°51' E 029°17'0 0.0
2015-Mar-21 06:22N 40°51' E 029°17'0 0.0
2015-Mar-21 05:22N 40°51' E 029°17'0 0.0
2015-Mar-21 04:22N 40°51' E 029°17'0 0.0
2015-Mar-21 03:28N 40°51' E 029°17'0 0.0
2015-Mar-21 02:28N 40°51' E 029°17'0 0.0
2015-Mar-21 01:28N 40°51' E 029°17'0 0.0
2015-Mar-21 00:28N 40°51' E 029°17'0 0.0
2015-Mar-20 23:28N 40°51' E 029°17'0 0.0
2015-Mar-20 22:28N 40°51' E 029°17'0 0.0
2015-Mar-20 21:28N 40°51' E 029°17'0 0.0
2015-Mar-20 20:28N 40°51' E 029°17'0 0.0
2015-Mar-20 19:22N 40°51' E 029°17'0 0.0
2015-Mar-20 17:22N 40°51' E 029°17'0 0.0
2015-Mar-20 16:28N 40°51' E 029°17'0 0.0
2015-Mar-20 15:28N 40°51' E 029°17'0 0.0
2015-Mar-20 14:28N 40°51' E 029°17'0 0.0
2015-Mar-20 13:28N 40°51' E 029°17'0 0.0
2015-Mar-20 12:28N 40°51' E 029°17'0 0.0
2015-Mar-20 11:25N 40°51' E 029°17'0 0.0
2015-Mar-20 10:25N 40°51' E 029°17'0 0.0
2015-Mar-20 09:31N 40°51' E 029°17'0 0.0
2015-Mar-20 08:31N 40°51' E 029°17'0 0.0
2015-Mar-20 07:31N 40°51' E 029°17'0 0.0
2015-Mar-20 06:31N 40°51' E 029°17'0 0.0
2015-Mar-20 05:13N 40°51' E 029°17'0 0.0
2015-Mar-20 04:22N 40°51' E 029°17'0 0.0
2015-Mar-20 03:28N 40°51' E 029°17'0 0.0
2015-Mar-20 02:22N 40°51' E 029°17'0 0.0
2015-Mar-20 01:22N 40°51' E 029°17'0 0.0
2015-Mar-20 00:10N 40°51' E 029°17'0 0.0
2015-Mar-19 23:28N 40°51' E 029°17'0 0.0
2015-Mar-19 22:28N 40°51' E 029°17'0 0.0
2015-Mar-19 21:10N 40°51' E 029°17'  

Dump ship's entire track history